createdAt,value
2023-03-10T00:01:57.472Z,60.73
2023-03-10T00:04:59.847Z,65.53
2023-03-10T00:08:01.854Z,64.07
2023-03-10T00:11:04.260Z,67.10
2023-03-10T00:14:06.281Z,69.17
2023-03-10T00:17:08.652Z,73.03
2023-03-10T00:20:12.772Z,68.50
2023-03-10T00:23:15.067Z,74.27
2023-03-10T00:26:18.851Z,79.27
2023-03-10T00:29:22.098Z,73.37
2023-03-10T00:32:24.164Z,85.10
2023-03-10T00:35:26.811Z,84.50
2023-03-10T00:38:29.383Z,77.87
2023-03-10T00:41:39.662Z,80.93
2023-03-10T00:44:41.647Z,80.50
2023-03-10T00:47:44.016Z,79.27
2023-03-10T00:50:46.665Z,76.70
2023-03-10T00:53:49.653Z,76.67
2023-03-10T00:56:51.656Z,83.10
2023-03-10T00:59:53.913Z,87.83
2023-03-10T01:02:55.976Z,88.07
2023-03-10T01:05:58.489Z,93.33
2023-03-10T01:09:00.845Z,90.50
2023-03-10T01:12:03.341Z,88.50
2023-03-10T01:15:06.310Z,85.53
2023-03-10T01:18:08.704Z,80.13
2023-03-10T01:21:19.939Z,81.10
2023-03-10T01:24:22.277Z,83.90
2023-03-10T01:27:24.321Z,81.70
2023-03-10T01:30:26.700Z,85.40
2023-03-10T01:33:28.704Z,81.57
2023-03-10T01:36:31.026Z,81.33
2023-03-10T01:39:33.010Z,74.63
2023-03-10T01:42:35.438Z,74.77
2023-03-10T01:45:37.380Z,77.93
2023-03-10T01:48:39.829Z,71.80
2023-03-10T01:51:47.757Z,72.83
2023-03-10T01:55:01.025Z,69.37
2023-03-10T01:58:05.703Z,69.27
2023-03-10T02:01:10.670Z,68.17
2023-03-10T02:04:38.736Z,64.80
2023-03-10T02:07:43.063Z,66.60
2023-03-10T02:10:46.487Z,69.70
2023-03-10T02:13:49.296Z,62.40
2023-03-10T02:16:51.396Z,64.47
2023-03-10T02:19:56.523Z,61.53
2023-03-10T02:22:58.691Z,61.23
2023-03-10T02:26:19.910Z,65.07
2023-03-10T02:29:30.908Z,67.97
2023-03-10T02:32:35.557Z,64.87
2023-03-10T02:35:37.704Z,65.90
2023-03-10T02:38:40.052Z,66.77
2023-03-10T02:41:45.414Z,61.50
2023-03-10T02:44:49.420Z,67.40
2023-03-10T02:47:51.420Z,68.13
2023-03-10T02:50:53.999Z,63.93
2023-03-10T02:53:57.443Z,68.47
2023-03-10T02:56:59.836Z,67.10
2023-03-10T03:00:02.556Z,70.60
2023-03-10T03:03:05.604Z,67.50
2023-03-10T03:06:08.338Z,68.50
2023-03-10T03:09:10.697Z,71.83
2023-03-10T03:12:12.716Z,75.10
2023-03-10T03:15:14.992Z,73.17
2023-03-10T03:18:17.181Z,71.17
2023-03-10T03:21:19.573Z,65.13
2023-03-10T03:24:21.856Z,70.10
2023-03-10T03:27:24.146Z,72.37
2023-03-10T03:30:28.399Z,77.23
2023-03-10T03:33:30.674Z,68.10
2023-03-10T03:36:32.961Z,74.23
2023-03-10T03:39:35.335Z,75.67
2023-03-10T03:42:37.593Z,74.27
2023-03-10T03:45:40.036Z,72.47
2023-03-10T03:48:42.138Z,69.60
2023-03-10T03:51:44.424Z,72.17
2023-03-10T03:54:46.411Z,72.20
2023-03-10T03:57:48.803Z,72.23
2023-03-10T04:00:51.828Z,70.03
2023-03-10T04:03:54.412Z,69.40
2023-03-10T04:06:56.523Z,72.73
2023-03-10T04:09:59.350Z,68.43
2023-03-10T04:13:01.406Z,72.83
2023-03-10T04:16:03.990Z,72.57
2023-03-10T04:19:08.001Z,72.30
2023-03-10T04:22:10.392Z,74.90
2023-03-10T04:25:12.650Z,74.60
2023-03-10T04:28:14.942Z,77.70
2023-03-10T04:31:19.174Z,80.73
2023-03-10T04:34:21.470Z,78.57
2023-03-10T04:37:23.659Z,77.43
2023-03-10T04:40:25.962Z,83.40
2023-03-10T04:43:27.978Z,81.47
2023-03-10T04:46:31.892Z,82.40
2023-03-10T04:49:33.981Z,83.37
2023-03-10T04:52:36.361Z,81.40
2023-03-10T04:55:38.757Z,85.20
2023-03-10T04:58:41.160Z,84.50
2023-03-10T05:01:43.427Z,82.37
2023-03-10T05:04:45.899Z,87.13
2023-03-10T05:07:47.977Z,84.53
2023-03-10T05:10:52.910Z,90.23
2023-03-10T05:13:54.913Z,81.83
2023-03-10T05:16:57.859Z,87.33
2023-03-10T05:19:59.882Z,84.50
2023-03-10T05:23:02.293Z,79.40
2023-03-10T05:26:09.312Z,77.47
2023-03-10T05:29:11.634Z,86.10
2023-03-10T05:32:13.639Z,79.67
2023-03-10T05:35:16.000Z,81.33
2023-03-10T05:38:19.627Z,77.53
2023-03-10T05:41:22.033Z,84.33
2023-03-10T05:44:24.047Z,82.67
2023-03-10T05:47:26.422Z,78.47
2023-03-10T05:50:29.283Z,80.90
2023-03-10T05:53:32.844Z,83.10
2023-03-10T05:56:34.986Z,74.57
2023-03-10T05:59:37.321Z,81.07
2023-03-10T06:02:41.795Z,80.17
2023-03-10T06:05:44.227Z,87.20
2023-03-10T06:08:46.443Z,81.17
2023-03-10T06:11:48.713Z,80.80
2023-03-10T06:14:50.814Z,81.57
2023-03-10T06:17:53.127Z,81.13
2023-03-10T06:20:55.655Z,80.57
2023-03-10T06:23:59.141Z,84.90
2023-03-10T06:27:01.153Z,81.47
2023-03-10T06:30:03.724Z,77.47
2023-03-10T06:33:05.932Z,81.03
2023-03-10T06:36:10.305Z,79.67
2023-03-10T06:39:12.685Z,82.90
2023-03-10T06:42:14.988Z,78.67
2023-03-10T06:45:17.691Z,76.37
2023-03-10T06:48:20.032Z,79.37
2023-03-10T06:51:22.665Z,80.37
2023-03-10T06:54:25.065Z,74.77
2023-03-10T06:57:27.431Z,74.53
2023-03-10T07:00:29.954Z,74.53
2023-03-10T07:03:32.170Z,72.43
2023-03-10T07:06:34.444Z,68.57
2023-03-10T07:09:36.447Z,70.70
2023-03-10T07:12:38.753Z,71.30
2023-03-10T07:15:40.895Z,68.27
2023-03-10T07:18:43.751Z,69.57
2023-03-10T07:21:45.754Z,68.47
2023-03-10T07:24:47.987Z,63.50
2023-03-10T07:27:50.295Z,61.87
2023-03-10T07:30:55.097Z,63.47
2023-03-10T07:33:57.186Z,65.97
2023-03-10T07:36:59.470Z,55.73
2023-03-10T07:40:01.481Z,56.47
2023-03-10T07:43:05.373Z,53.63
2023-03-10T07:46:09.718Z,57.03
2023-03-10T07:49:12.092Z,48.10
2023-03-10T07:52:15.612Z,48.03
2023-03-10T07:55:18.325Z,57.90
2023-03-10T07:58:20.817Z,37.97
2023-03-10T08:01:23.281Z,34.23
2023-03-10T08:04:25.559Z,32.07
2023-03-10T08:07:28.115Z,30.23
2023-03-10T08:10:30.238Z,21.13
2023-03-10T08:13:33.318Z,21.07
2023-03-10T08:16:35.664Z,17.83
2023-03-10T08:19:39.159Z,23.40
2023-03-10T08:22:41.419Z,35.10
2023-03-10T08:25:43.721Z,21.90
2023-03-10T08:28:46.146Z,13.00
2023-03-10T08:31:48.773Z,15.47
2023-03-10T08:34:50.924Z,20.60
2023-03-10T08:37:55.326Z,28.53
2023-03-10T08:40:57.859Z,47.90
2023-03-10T08:44:01.188Z,25.87
2023-03-10T08:47:03.634Z,43.73
2023-03-10T08:50:07.639Z,39.30
2023-03-10T08:53:09.787Z,21.87
2023-03-10T08:56:12.289Z,21.33
2023-03-10T08:59:14.401Z,17.60
2023-03-10T09:02:17.395Z,12.50
2023-03-10T09:05:21.689Z,10.97
2023-03-10T09:08:27.016Z,17.40
2023-03-10T09:11:32.413Z,14.30
2023-03-10T09:14:38.400Z,11.73
2023-03-10T09:17:41.034Z,11.13
2023-03-10T09:20:46.527Z,15.20
2023-03-10T09:23:50.100Z,11.10
2023-03-10T09:26:52.540Z,8.63
2023-03-10T09:29:54.550Z,9.17
2023-03-10T09:32:57.035Z,6.70
2023-03-10T09:36:08.083Z,8.50
2023-03-10T09:39:10.577Z,7.17
2023-03-10T09:42:38.781Z,5.63
2023-03-10T09:46:02.301Z,7.83
2023-03-10T09:49:31.043Z,6.87
2023-03-10T09:52:45.271Z,6.07
2023-03-10T09:55:49.009Z,4.83
2023-03-10T09:59:24.466Z,8.17
2023-03-10T10:02:32.213Z,6.27
2023-03-10T10:05:35.789Z,7.53
2023-03-10T10:08:41.389Z,6.27
2023-03-10T10:11:43.843Z,5.97
2023-03-10T10:14:55.267Z,8.07
2023-03-10T10:18:17.850Z,5.13
2023-03-10T10:21:42.889Z,8.90
2023-03-10T10:25:13.363Z,6.17
2023-03-10T10:28:41.823Z,5.20
2023-03-10T10:32:06.292Z,4.68
2023-03-10T10:35:15.878Z,5.13
2023-03-10T10:38:24.815Z,4.40
2023-03-10T10:41:32.090Z,5.57
2023-03-10T10:44:41.459Z,8.30
2023-03-10T10:47:49.854Z,8.80
2023-03-10T10:50:56.597Z,5.40
2023-03-10T10:54:04.451Z,5.43
2023-03-10T10:57:20.070Z,11.20
2023-03-10T11:00:34.877Z,5.50
2023-03-10T11:03:40.039Z,5.40
2023-03-10T11:06:42.151Z,6.80
2023-03-10T11:09:44.533Z,7.53
2023-03-10T11:12:56.650Z,8.75
2023-03-10T11:16:11.545Z,4.15
2023-03-10T11:19:35.251Z,4.22
2023-03-10T11:22:49.970Z,7.75
2023-03-10T11:25:59.275Z,6.20
2023-03-10T11:29:14.779Z,3.97
2023-03-10T11:32:43.468Z,6.00
2023-03-10T11:35:53.369Z,3.90
2023-03-10T11:39:20.979Z,3.83
2023-03-10T11:42:48.033Z,3.50
2023-03-10T11:45:55.382Z,6.80
2023-03-10T11:49:16.267Z,8.82
2023-03-10T11:52:20.272Z,4.72
2023-03-10T11:55:23.121Z,4.68
2023-03-10T11:58:34.116Z,6.82
2023-03-10T12:01:57.305Z,4.07
2023-03-10T12:05:17.320Z,6.90
2023-03-10T12:08:22.657Z,7.50
2023-03-10T12:11:27.263Z,5.78
2023-03-10T12:14:30.560Z,4.05
2023-03-10T12:17:32.677Z,4.53
2023-03-10T12:20:35.775Z,13.63
2023-03-10T12:24:04.962Z,6.30
2023-03-10T12:27:07.336Z,5.30
2023-03-10T12:30:43.707Z,5.38
2023-03-10T12:33:49.272Z,5.55
2023-03-10T12:37:02.855Z,5.05
2023-03-10T12:40:50.786Z,3.58
2023-03-10T12:44:16.434Z,3.00
2023-03-10T12:47:46.708Z,4.18
2023-03-10T12:51:06.014Z,7.05
2023-03-10T12:54:21.287Z,5.07
2023-03-10T12:57:34.012Z,4.90
2023-03-10T13:00:43.858Z,4.80
2023-03-10T13:03:55.441Z,7.47
2023-03-10T13:07:04.131Z,3.85
2023-03-10T13:10:15.965Z,4.60
2023-03-10T13:13:18.358Z,3.67
2023-03-10T13:16:21.307Z,5.75
2023-03-10T13:19:25.843Z,6.35
2023-03-10T13:22:28.597Z,14.18
2023-03-10T13:25:32.683Z,9.95
2023-03-10T13:28:35.769Z,15.25
2023-03-10T13:31:38.209Z,20.05
2023-03-10T13:34:40.197Z,16.10
2023-03-10T13:37:42.571Z,22.52
2023-03-10T13:40:50.317Z,29.48
2023-03-10T13:43:54.499Z,18.38
2023-03-10T13:47:01.902Z,18.98
2023-03-10T13:50:04.541Z,12.23
2023-03-10T13:53:06.569Z,9.23
2023-03-10T13:56:34.425Z,10.30
2023-03-10T13:59:37.543Z,13.27
2023-03-10T14:02:41.513Z,8.25
2023-03-10T14:05:48.640Z,14.93
2023-03-10T14:08:52.247Z,12.05
2023-03-10T14:11:54.315Z,12.95
2023-03-10T14:15:29.490Z,15.68
2023-03-10T14:18:39.346Z,8.88
2023-03-10T14:21:59.961Z,16.25
2023-03-10T14:25:18.958Z,23.55
2023-03-10T14:28:27.579Z,20.20
2023-03-10T14:31:29.845Z,17.67
2023-03-10T14:34:32.161Z,11.87
2023-03-10T14:37:35.396Z,27.53
2023-03-10T14:40:43.772Z,8.83
2023-03-10T14:43:45.954Z,8.40
2023-03-10T14:46:53.031Z,27.03
2023-03-10T14:49:55.284Z,20.27
2023-03-10T14:52:57.568Z,16.60
2023-03-10T14:56:02.028Z,9.60
2023-03-10T14:59:06.613Z,4.00
2023-03-10T15:02:20.416Z,3.80
2023-03-10T15:05:34.612Z,2.93
2023-03-10T15:08:40.895Z,3.33
2023-03-10T15:11:43.407Z,3.57
2023-03-10T15:14:52.637Z,3.63
2023-03-10T15:17:55.035Z,4.53
2023-03-10T15:21:01.381Z,12.30
2023-03-10T15:24:07.544Z,17.93
2023-03-10T15:27:14.339Z,32.23
2023-03-10T15:30:23.898Z,29.13
2023-03-10T15:33:25.926Z,26.20
2023-03-10T15:36:28.223Z,14.40
2023-03-10T15:39:32.347Z,8.63
2023-03-10T15:42:35.909Z,42.63
2023-03-10T15:45:43.935Z,18.93
2023-03-10T15:48:46.367Z,18.60
2023-03-10T15:51:48.511Z,21.90
2023-03-10T15:54:50.876Z,14.07
2023-03-10T15:57:53.972Z,14.80
2023-03-10T16:00:56.571Z,13.33
2023-03-10T16:04:01.656Z,15.33
2023-03-10T16:07:05.114Z,12.10
2023-03-10T16:10:10.456Z,9.97
2023-03-10T16:13:12.740Z,10.33
2023-03-10T16:16:18.227Z,12.40
2023-03-10T16:19:21.183Z,12.07
2023-03-10T16:22:23.679Z,13.03
2023-03-10T16:25:26.000Z,19.00
2023-03-10T16:28:28.091Z,18.70
2023-03-10T16:31:30.610Z,23.50
2023-03-10T16:34:32.686Z,27.97
2023-03-10T16:37:35.060Z,30.57
2023-03-10T16:40:37.134Z,38.33
2023-03-10T16:43:40.351Z,34.87
2023-03-10T16:46:43.813Z,30.97
2023-03-10T16:49:46.140Z,30.27
2023-03-10T16:52:48.703Z,38.33
2023-03-10T16:55:51.528Z,42.17
2023-03-10T16:58:54.057Z,52.57
2023-03-10T17:01:56.409Z,47.07
2023-03-10T17:04:58.416Z,32.97
2023-03-10T17:08:04.962Z,26.87
2023-03-10T17:11:17.851Z,19.63
2023-03-10T17:14:21.240Z,20.53
2023-03-10T17:17:23.765Z,11.93
2023-03-10T17:20:26.262Z,12.00
2023-03-10T17:23:28.229Z,20.33
2023-03-10T17:26:30.936Z,16.57
2023-03-10T17:29:33.249Z,15.40
2023-03-10T17:32:37.094Z,23.60
2023-03-10T17:35:39.352Z,19.60
2023-03-10T17:38:42.701Z,20.67
2023-03-10T17:41:44.832Z,24.60
2023-03-10T17:44:47.250Z,28.37
2023-03-10T17:47:49.501Z,35.77
2023-03-10T17:50:52.239Z,29.87
2023-03-10T17:53:57.544Z,27.50
2023-03-10T17:56:59.920Z,30.47
2023-03-10T18:00:02.157Z,32.33
2023-03-10T18:03:04.650Z,50.17
2023-03-10T18:06:16.313Z,36.33
2023-03-10T18:09:18.604Z,60.40
2023-03-10T18:12:20.612Z,26.40
2023-03-10T18:15:23.053Z,24.00
2023-03-10T18:18:25.431Z,24.40
2023-03-10T18:21:28.273Z,45.87
2023-03-10T18:24:30.312Z,41.83
2023-03-10T18:27:33.444Z,37.53
2023-03-10T18:30:35.415Z,38.73
2023-03-10T18:33:37.955Z,37.60
2023-03-10T18:36:40.755Z,30.47
2023-03-10T18:39:43.137Z,31.37
2023-03-10T18:42:45.574Z,26.07
2023-03-10T18:45:48.345Z,27.20
2023-03-10T18:48:55.837Z,33.63
2023-03-10T18:51:58.279Z,26.00
2023-03-10T18:55:01.194Z,24.90
2023-03-10T18:58:03.890Z,23.53
2023-03-10T19:01:15.556Z,24.40
2023-03-10T19:04:19.179Z,24.40
2023-03-10T19:07:21.521Z,163.50
2023-03-10T19:10:25.455Z,62.47
2023-03-10T19:13:29.025Z,53.70
2023-03-10T19:16:42.705Z,59.50
2023-03-10T19:19:44.779Z,35.93
2023-03-10T19:22:52.242Z,30.27
2023-03-10T19:25:54.912Z,29.87
2023-03-10T19:28:57.259Z,43.40
2023-03-10T19:31:59.474Z,34.53
2023-03-10T19:35:05.221Z,28.07
2023-03-10T19:38:07.239Z,28.10
2023-03-10T19:41:16.216Z,31.27
2023-03-10T19:44:18.364Z,51.00
2023-03-10T19:47:20.705Z,39.73
2023-03-10T19:50:23.659Z,36.30
2023-03-10T19:53:27.772Z,38.73
2023-03-10T19:56:30.873Z,38.73
2023-03-10T19:59:33.850Z,36.20
2023-03-10T20:02:35.940Z,30.47
2023-03-10T20:05:38.407Z,28.77
2023-03-10T20:08:40.722Z,32.90
2023-03-10T20:11:43.122Z,33.57
2023-03-10T20:14:45.119Z,39.47
2023-03-10T20:17:47.612Z,34.27
2023-03-10T20:20:50.333Z,37.27
2023-03-10T20:23:55.494Z,40.13
2023-03-10T20:27:00.194Z,35.17
2023-03-10T20:30:06.277Z,39.13
2023-03-10T20:33:08.432Z,42.13
2023-03-10T20:36:13.938Z,41.07
2023-03-10T20:39:16.003Z,42.23
2023-03-10T20:42:18.402Z,38.37
2023-03-10T20:45:21.903Z,41.00
2023-03-10T20:48:24.195Z,49.40
2023-03-10T20:51:26.271Z,53.90
2023-03-10T20:54:28.747Z,54.90
2023-03-10T20:57:31.971Z,61.17
2023-03-10T21:00:34.500Z,56.93
2023-03-10T21:03:36.507Z,67.77
2023-03-10T21:06:38.767Z,86.53
2023-03-10T21:09:40.852Z,91.13
2023-03-10T21:12:44.085Z,109.43
2023-03-10T21:15:46.082Z,109.67
2023-03-10T21:18:48.354Z,118.47
2023-03-10T21:21:50.438Z,178.07
2023-03-10T21:24:53.227Z,106.43
2023-03-10T21:27:59.013Z,74.50
2023-03-10T21:31:01.503Z,66.83
2023-03-10T21:34:04.475Z,51.33
2023-03-10T21:37:08.582Z,55.33
2023-03-10T21:40:14.880Z,47.07
2023-03-10T21:43:18.310Z,42.50
2023-03-10T21:46:20.432Z,48.63
2023-03-10T21:49:22.770Z,86.57
2023-03-10T21:52:24.878Z,77.87
2023-03-10T21:55:28.740Z,65.53
2023-03-10T21:58:30.779Z,69.47
2023-03-10T22:01:33.488Z,53.00
2023-03-10T22:04:35.665Z,44.40
2023-03-10T22:07:38.673Z,42.27
2023-03-10T22:10:40.711Z,31.17
2023-03-10T22:13:43.155Z,27.80
2023-03-10T22:16:45.129Z,35.40
2023-03-10T22:19:49.562Z,57.77
2023-03-10T22:22:51.898Z,46.37
2023-03-10T22:25:55.462Z,48.37
2023-03-10T22:28:57.432Z,16.40
2023-03-10T22:31:59.701Z,15.60
2023-03-10T22:35:02.139Z,15.33
2023-03-10T22:38:05.494Z,17.03
2023-03-10T22:41:12.083Z,16.73
2023-03-10T22:44:14.436Z,13.07
2023-03-10T22:47:17.863Z,9.57
2023-03-10T22:50:26.951Z,8.07
2023-03-10T22:53:28.989Z,11.47
2023-03-10T22:56:31.290Z,9.27
2023-03-10T22:59:33.351Z,11.97
2023-03-10T23:02:35.675Z,11.63
2023-03-10T23:05:38.111Z,11.43
2023-03-10T23:08:43.509Z,13.00
2023-03-10T23:11:46.646Z,12.30
2023-03-10T23:14:48.967Z,10.33
2023-03-10T23:17:51.578Z,8.57
2023-03-10T23:20:53.880Z,8.43
2023-03-10T23:23:56.165Z,8.03
2023-03-10T23:26:58.422Z,9.97
2023-03-10T23:30:00.439Z,9.47
2023-03-10T23:33:03.683Z,8.37
2023-03-10T23:36:06.078Z,11.47
2023-03-10T23:39:11.190Z,9.17
2023-03-10T23:42:13.219Z,11.27
2023-03-10T23:45:18.540Z,12.63
2023-03-10T23:48:21.686Z,8.90
2023-03-10T23:51:24.182Z,9.43
2023-03-10T23:54:28.090Z,13.80
2023-03-10T23:57:30.322Z,10.23
